sensor_id;sensor_type;location;lat;lon;timestamp;P1;durP1;ratioP1;P2;durP2;ratioP2
22113;SDS011;11223;49.968;9.062;2022-11-28T00:00:13;13.30;;;9.50;;
22113;SDS011;11223;49.968;9.062;2022-11-28T00:02:40;11.45;;;8.60;;
22113;SDS011;11223;49.968;9.062;2022-11-28T00:05:08;8.43;;;7.63;;
22113;SDS011;11223;49.968;9.062;2022-11-28T00:07:34;8.70;;;7.85;;
22113;SDS011;11223;49.968;9.062;2022-11-28T00:10:00;9.07;;;8.17;;
22113;SDS011;11223;49.968;9.062;2022-11-28T00:12:26;10.57;;;7.70;;
22113;SDS011;11223;49.968;9.062;2022-11-28T00:14:52;11.55;;;8.45;;
22113;SDS011;11223;49.968;9.062;2022-11-28T00:17:18;10.43;;;8.60;;
22113;SDS011;11223;49.968;9.062;2022-11-28T00:19:47;9.20;;;7.77;;
22113;SDS011;11223;49.968;9.062;2022-11-28T00:22:12;8.70;;;7.13;;
22113;SDS011;11223;49.968;9.062;2022-11-28T00:24:38;9.07;;;8.03;;
22113;SDS011;11223;49.968;9.062;2022-11-28T00:27:04;8.50;;;7.70;;
22113;SDS011;11223;49.968;9.062;2022-11-28T00:29:29;10.30;;;7.53;;
22113;SDS011;11223;49.968;9.062;2022-11-28T00:31:55;8.60;;;7.73;;
22113;SDS011;11223;49.968;9.062;2022-11-28T00:34:20;10.33;;;7.53;;
22113;SDS011;11223;49.968;9.062;2022-11-28T00:36:46;7.73;;;6.93;;
22113;SDS011;11223;49.968;9.062;2022-11-28T00:39:12;9.70;;;7.77;;
22113;SDS011;11223;49.968;9.062;2022-11-28T00:41:39;8.60;;;7.07;;
22113;SDS011;11223;49.968;9.062;2022-11-28T00:44:05;8.52;;;6.72;;
22113;SDS011;11223;49.968;9.062;2022-11-28T00:46:31;9.60;;;8.27;;
22113;SDS011;11223;49.968;9.062;2022-11-28T00:48:56;8.00;;;6.93;;
22113;SDS011;11223;49.968;9.062;2022-11-28T00:51:24;11.32;;;8.35;;
22113;SDS011;11223;49.968;9.062;2022-11-28T00:53:52;10.75;;;8.13;;
22113;SDS011;11223;49.968;9.062;2022-11-28T00:56:20;10.75;;;8.90;;
22113;SDS011;11223;49.968;9.062;2022-11-28T00:58:47;11.35;;;10.25;;
22113;SDS011;11223;49.968;9.062;2022-11-28T01:01:24;11.23;;;9.27;;
22113;SDS011;11223;49.968;9.062;2022-11-28T01:03:52;12.10;;;7.50;;
22113;SDS011;11223;49.968;9.062;2022-11-28T01:06:23;9.05;;;8.05;;
22113;SDS011;11223;49.968;9.062;2022-11-28T01:08:52;9.90;;;7.97;;
22113;SDS011;11223;49.968;9.062;2022-11-28T01:11:18;8.13;;;7.25;;
22113;SDS011;11223;49.968;9.062;2022-11-28T01:13:44;9.10;;;7.97;;
22113;SDS011;11223;49.968;9.062;2022-11-28T01:16:10;10.53;;;8.80;;
22113;SDS011;11223;49.968;9.062;2022-11-28T01:18:36;10.10;;;8.27;;
22113;SDS011;11223;49.968;9.062;2022-11-28T01:21:02;9.85;;;8.80;;
22113;SDS011;11223;49.968;9.062;2022-11-28T01:23:29;8.23;;;7.38;;
22113;SDS011;11223;49.968;9.062;2022-11-28T01:25:55;9.17;;;7.10;;
22113;SDS011;11223;49.968;9.062;2022-11-28T01:28:20;8.83;;;7.90;;
22113;SDS011;11223;49.968;9.062;2022-11-28T01:30:46;10.30;;;7.30;;
22113;SDS011;11223;49.968;9.062;2022-11-28T01:33:11;8.70;;;7.27;;
22113;SDS011;11223;49.968;9.062;2022-11-28T01:35:37;9.23;;;7.50;;
22113;SDS011;11223;49.968;9.062;2022-11-28T01:38:03;11.67;;;9.40;;
22113;SDS011;11223;49.968;9.062;2022-11-28T01:40:28;7.47;;;6.70;;
22113;SDS011;11223;49.968;9.062;2022-11-28T01:42:54;10.70;;;7.17;;
22113;SDS011;11223;49.968;9.062;2022-11-28T01:45:21;11.80;;;8.23;;
22113;SDS011;11223;49.968;9.062;2022-11-28T01:47:52;7.28;;;6.25;;
22113;SDS011;11223;49.968;9.062;2022-11-28T01:50:22;9.88;;;8.27;;
22113;SDS011;11223;49.968;9.062;2022-11-28T01:52:48;11.00;;;9.00;;
22113;SDS011;11223;49.968;9.062;2022-11-28T01:55:17;8.93;;;7.43;;
22113;SDS011;11223;49.968;9.062;2022-11-28T01:57:47;9.30;;;6.95;;
22113;SDS011;11223;49.968;9.062;2022-11-28T02:00:14;9.02;;;7.35;;
22113;SDS011;11223;49.968;9.062;2022-11-28T02:02:46;10.88;;;8.00;;
22113;SDS011;11223;49.968;9.062;2022-11-28T02:05:17;10.90;;;7.60;;
22113;SDS011;11223;49.968;9.062;2022-11-28T02:07:44;8.90;;;7.80;;
22113;SDS011;11223;49.968;9.062;2022-11-28T02:10:13;7.93;;;7.13;;
22113;SDS011;11223;49.968;9.062;2022-11-28T02:23:47;9.63;;;7.15;;
22113;SDS011;11223;49.968;9.062;2022-11-28T02:37:13;8.55;;;7.20;;
22113;SDS011;11223;49.968;9.062;2022-11-28T02:47:49;10.65;;;8.20;;
22113;SDS011;11223;49.968;9.062;2022-11-28T02:50:24;9.48;;;7.80;;
22113;SDS011;11223;49.968;9.062;2022-11-28T02:52:55;12.38;;;8.45;;
22113;SDS011;11223;49.968;9.062;2022-11-28T02:55:27;11.30;;;8.90;;
22113;SDS011;11223;49.968;9.062;2022-11-28T02:57:54;10.38;;;8.82;;
22113;SDS011;11223;49.968;9.062;2022-11-28T03:00:33;10.63;;;8.60;;
22113;SDS011;11223;49.968;9.062;2022-11-28T03:05:50;10.50;;;7.65;;
22113;SDS011;11223;49.968;9.062;2022-11-28T03:11:10;12.88;;;10.60;;
22113;SDS011;11223;49.968;9.062;2022-11-28T03:16:53;10.40;;;8.07;;
22113;SDS011;11223;49.968;9.062;2022-11-28T03:19:30;9.48;;;7.68;;
22113;SDS011;11223;49.968;9.062;2022-11-28T03:24:45;9.65;;;8.40;;
22113;SDS011;11223;49.968;9.062;2022-11-28T03:27:25;13.07;;;8.93;;
22113;SDS011;11223;49.968;9.062;2022-11-28T03:30:03;11.70;;;9.18;;
22113;SDS011;11223;49.968;9.062;2022-11-28T03:32:34;10.48;;;8.85;;
22113;SDS011;11223;49.968;9.062;2022-11-28T03:35:03;13.65;;;9.60;;
22113;SDS011;11223;49.968;9.062;2022-11-28T03:37:39;13.15;;;9.75;;
22113;SDS011;11223;49.968;9.062;2022-11-28T03:40:16;12.88;;;9.85;;
22113;SDS011;11223;49.968;9.062;2022-11-28T03:42:50;12.95;;;10.30;;
22113;SDS011;11223;49.968;9.062;2022-11-28T03:45:35;21.15;;;10.88;;
22113;SDS011;11223;49.968;9.062;2022-11-28T03:48:12;13.82;;;11.38;;
22113;SDS011;11223;49.968;9.062;2022-11-28T03:50:44;11.52;;;9.35;;
22113;SDS011;11223;49.968;9.062;2022-11-28T03:53:19;14.05;;;10.18;;
22113;SDS011;11223;49.968;9.062;2022-11-28T03:55:54;12.40;;;9.73;;
22113;SDS011;11223;49.968;9.062;2022-11-28T03:58:36;14.60;;;9.30;;
22113;SDS011;11223;49.968;9.062;2022-11-28T04:06:52;11.52;;;9.07;;
22113;SDS011;11223;49.968;9.062;2022-11-28T04:12:18;12.15;;;10.18;;
22113;SDS011;11223;49.968;9.062;2022-11-28T04:20:45;12.60;;;9.70;;
22113;SDS011;11223;49.968;9.062;2022-11-28T04:23:20;13.82;;;9.98;;
22113;SDS011;11223;49.968;9.062;2022-11-28T04:25:52;10.00;;;8.70;;
22113;SDS011;11223;49.968;9.062;2022-11-28T04:28:21;10.45;;;9.15;;
22113;SDS011;11223;49.968;9.062;2022-11-28T04:30:50;11.95;;;9.45;;
22113;SDS011;11223;49.968;9.062;2022-11-28T04:33:18;12.98;;;9.48;;
22113;SDS011;11223;49.968;9.062;2022-11-28T04:35:47;11.68;;;9.95;;
22113;SDS011;11223;49.968;9.062;2022-11-28T04:38:15;12.32;;;11.00;;
22113;SDS011;11223;49.968;9.062;2022-11-28T04:40:45;9.00;;;7.90;;
22113;SDS011;11223;49.968;9.062;2022-11-28T04:43:19;12.80;;;9.43;;
22113;SDS011;11223;49.968;9.062;2022-11-28T04:46:21;12.05;;;10.07;;
22113;SDS011;11223;49.968;9.062;2022-11-28T04:48:52;15.20;;;10.65;;
22113;SDS011;11223;49.968;9.062;2022-11-28T04:51:35;14.93;;;10.83;;
22113;SDS011;11223;49.968;9.062;2022-11-28T04:54:10;16.25;;;11.77;;
22113;SDS011;11223;49.968;9.062;2022-11-28T04:56:52;13.38;;;10.43;;
22113;SDS011;11223;49.968;9.062;2022-11-28T04:59:41;16.45;;;10.40;;
22113;SDS011;11223;49.968;9.062;2022-11-28T05:02:08;14.27;;;11.10;;
22113;SDS011;11223;49.968;9.062;2022-11-28T05:04:36;17.77;;;12.13;;
22113;SDS011;11223;49.968;9.062;2022-11-28T05:07:03;13.20;;;10.50;;
22113;SDS011;11223;49.968;9.062;2022-11-28T05:09:30;17.58;;;11.63;;
22113;SDS011;11223;49.968;9.062;2022-11-28T05:11:55;16.30;;;11.27;;
22113;SDS011;11223;49.968;9.062;2022-11-28T05:14:21;16.40;;;10.73;;
22113;SDS011;11223;49.968;9.062;2022-11-28T05:16:47;13.63;;;10.30;;
22113;SDS011;11223;49.968;9.062;2022-11-28T05:19:13;12.73;;;9.57;;
22113;SDS011;11223;49.968;9.062;2022-11-28T05:21:39;15.57;;;10.95;;
22113;SDS011;11223;49.968;9.062;2022-11-28T05:24:04;15.73;;;11.93;;
22113;SDS011;11223;49.968;9.062;2022-11-28T05:26:31;15.25;;;11.00;;
22113;SDS011;11223;49.968;9.062;2022-11-28T05:28:58;15.80;;;10.45;;
22113;SDS011;11223;49.968;9.062;2022-11-28T05:31:23;13.03;;;9.70;;
22113;SDS011;11223;49.968;9.062;2022-11-28T05:33:49;15.43;;;10.77;;
22113;SDS011;11223;49.968;9.062;2022-11-28T05:36:15;14.57;;;11.33;;
22113;SDS011;11223;49.968;9.062;2022-11-28T05:38:41;13.48;;;11.13;;
22113;SDS011;11223;49.968;9.062;2022-11-28T05:41:08;14.18;;;10.13;;
22113;SDS011;11223;49.968;9.062;2022-11-28T05:43:41;15.82;;;11.52;;
22113;SDS011;11223;49.968;9.062;2022-11-28T05:46:07;13.93;;;10.03;;
22113;SDS011;11223;49.968;9.062;2022-11-28T05:48:32;14.77;;;10.70;;
22113;SDS011;11223;49.968;9.062;2022-11-28T05:50:59;12.93;;;11.00;;
22113;SDS011;11223;49.968;9.062;2022-11-28T05:53:24;13.63;;;10.77;;
22113;SDS011;11223;49.968;9.062;2022-11-28T05:55:50;15.13;;;11.40;;
22113;SDS011;11223;49.968;9.062;2022-11-28T05:58:16;14.20;;;11.27;;
22113;SDS011;11223;49.968;9.062;2022-11-28T06:00:41;16.03;;;10.77;;
22113;SDS011;11223;49.968;9.062;2022-11-28T06:03:07;18.10;;;10.80;;
22113;SDS011;11223;49.968;9.062;2022-11-28T06:05:33;15.23;;;10.70;;
22113;SDS011;11223;49.968;9.062;2022-11-28T06:07:58;16.30;;;10.57;;
22113;SDS011;11223;49.968;9.062;2022-11-28T06:10:24;14.33;;;10.93;;
22113;SDS011;11223;49.968;9.062;2022-11-28T06:12:49;15.40;;;10.67;;
22113;SDS011;11223;49.968;9.062;2022-11-28T06:15:15;15.00;;;11.40;;
22113;SDS011;11223;49.968;9.062;2022-11-28T06:17:41;14.67;;;9.90;;
22113;SDS011;11223;49.968;9.062;2022-11-28T06:20:06;13.43;;;10.80;;
22113;SDS011;11223;49.968;9.062;2022-11-28T06:22:32;15.07;;;11.60;;
22113;SDS011;11223;49.968;9.062;2022-11-28T06:24:58;14.45;;;10.48;;
22113;SDS011;11223;49.968;9.062;2022-11-28T06:27:24;14.70;;;10.03;;
22113;SDS011;11223;49.968;9.062;2022-11-28T06:29:50;13.77;;;11.27;;
22113;SDS011;11223;49.968;9.062;2022-11-28T06:32:15;15.17;;;11.83;;
22113;SDS011;11223;49.968;9.062;2022-11-28T06:34:41;13.93;;;11.40;;
22113;SDS011;11223;49.968;9.062;2022-11-28T06:37:07;13.80;;;9.90;;
22113;SDS011;11223;49.968;9.062;2022-11-28T06:39:32;16.63;;;11.93;;
22113;SDS011;11223;49.968;9.062;2022-11-28T06:41:58;14.33;;;10.87;;
22113;SDS011;11223;49.968;9.062;2022-11-28T06:44:23;14.50;;;10.60;;
22113;SDS011;11223;49.968;9.062;2022-11-28T06:46:49;12.87;;;10.30;;
22113;SDS011;11223;49.968;9.062;2022-11-28T06:49:15;13.57;;;10.43;;
22113;SDS011;11223;49.968;9.062;2022-11-28T06:51:40;15.67;;;12.30;;
22113;SDS011;11223;49.968;9.062;2022-11-28T06:54:06;15.73;;;11.10;;
22113;SDS011;11223;49.968;9.062;2022-11-28T06:56:32;15.87;;;11.57;;
22113;SDS011;11223;49.968;9.062;2022-11-28T06:58:58;13.33;;;10.13;;
22113;SDS011;11223;49.968;9.062;2022-11-28T07:01:25;14.02;;;10.48;;
22113;SDS011;11223;49.968;9.062;2022-11-28T07:03:52;17.58;;;10.85;;
22113;SDS011;11223;49.968;9.062;2022-11-28T07:06:21;15.13;;;10.50;;
22113;SDS011;11223;49.968;9.062;2022-11-28T07:08:48;15.13;;;11.25;;
22113;SDS011;11223;49.968;9.062;2022-11-28T07:11:18;12.75;;;10.55;;
22113;SDS011;11223;49.968;9.062;2022-11-28T07:13:46;16.83;;;11.85;;
22113;SDS011;11223;49.968;9.062;2022-11-28T07:16:14;14.57;;;11.45;;
22113;SDS011;11223;49.968;9.062;2022-11-28T07:18:42;13.88;;;10.63;;
22113;SDS011;11223;49.968;9.062;2022-11-28T07:21:08;16.58;;;11.75;;
22113;SDS011;11223;49.968;9.062;2022-11-28T07:23:35;17.17;;;11.00;;
22113;SDS011;11223;49.968;9.062;2022-11-28T07:26:01;16.17;;;11.70;;
22113;SDS011;11223;49.968;9.062;2022-11-28T07:28:29;20.85;;;13.85;;
22113;SDS011;11223;49.968;9.062;2022-11-28T07:31:05;13.55;;;10.90;;
22113;SDS011;11223;49.968;9.062;2022-11-28T07:33:32;17.00;;;11.95;;
22113;SDS011;11223;49.968;9.062;2022-11-28T07:35:59;15.70;;;11.38;;
22113;SDS011;11223;49.968;9.062;2022-11-28T07:38:29;19.02;;;12.02;;
22113;SDS011;11223;49.968;9.062;2022-11-28T07:41:06;18.92;;;13.38;;
22113;SDS011;11223;49.968;9.062;2022-11-28T07:43:36;24.75;;;12.55;;
22113;SDS011;11223;49.968;9.062;2022-11-28T07:46:04;18.02;;;12.95;;
22113;SDS011;11223;49.968;9.062;2022-11-28T07:48:31;20.05;;;14.35;;
22113;SDS011;11223;49.968;9.062;2022-11-28T07:50:57;18.40;;;13.52;;
22113;SDS011;11223;49.968;9.062;2022-11-28T07:53:23;16.55;;;12.15;;
22113;SDS011;11223;49.968;9.062;2022-11-28T07:55:49;19.00;;;12.40;;
22113;SDS011;11223;49.968;9.062;2022-11-28T07:58:14;17.30;;;11.67;;
22113;SDS011;11223;49.968;9.062;2022-11-28T08:00:40;19.80;;;14.20;;
22113;SDS011;11223;49.968;9.062;2022-11-28T08:03:06;35.93;;;23.20;;
22113;SDS011;11223;49.968;9.062;2022-11-28T08:05:32;23.90;;;17.70;;
22113;SDS011;11223;49.968;9.062;2022-11-28T08:07:57;19.00;;;12.70;;
22113;SDS011;11223;49.968;9.062;2022-11-28T08:10:23;14.83;;;11.90;;
22113;SDS011;11223;49.968;9.062;2022-11-28T08:12:49;17.50;;;11.90;;
22113;SDS011;11223;49.968;9.062;2022-11-28T08:15:15;19.53;;;13.53;;
22113;SDS011;11223;49.968;9.062;2022-11-28T08:17:40;15.60;;;11.70;;
22113;SDS011;11223;49.968;9.062;2022-11-28T08:20:06;15.60;;;10.60;;
22113;SDS011;11223;49.968;9.062;2022-11-28T08:22:32;15.82;;;10.93;;
22113;SDS011;11223;49.968;9.062;2022-11-28T08:24:58;16.93;;;11.67;;
22113;SDS011;11223;49.968;9.062;2022-11-28T08:27:23;16.37;;;12.60;;
22113;SDS011;11223;49.968;9.062;2022-11-28T08:29:49;14.03;;;10.27;;
22113;SDS011;11223;49.968;9.062;2022-11-28T08:32:15;15.88;;;12.57;;
22113;SDS011;11223;49.968;9.062;2022-11-28T08:34:40;16.77;;;10.97;;
22113;SDS011;11223;49.968;9.062;2022-11-28T08:37:06;16.20;;;12.20;;
22113;SDS011;11223;49.968;9.062;2022-11-28T08:39:31;15.40;;;11.67;;
22113;SDS011;11223;49.968;9.062;2022-11-28T08:41:58;16.20;;;12.45;;
22113;SDS011;11223;49.968;9.062;2022-11-28T08:44:24;14.70;;;10.77;;
22113;SDS011;11223;49.968;9.062;2022-11-28T08:46:50;14.80;;;10.57;;
22113;SDS011;11223;49.968;9.062;2022-11-28T08:49:16;14.25;;;11.77;;
22113;SDS011;11223;49.968;9.062;2022-11-28T08:51:41;16.60;;;13.07;;
22113;SDS011;11223;49.968;9.062;2022-11-28T08:54:07;16.20;;;12.10;;
22113;SDS011;11223;49.968;9.062;2022-11-28T08:56:33;14.83;;;12.30;;
22113;SDS011;11223;49.968;9.062;2022-11-28T08:58:58;15.23;;;12.40;;
22113;SDS011;11223;49.968;9.062;2022-11-28T09:01:25;18.40;;;12.03;;
22113;SDS011;11223;49.968;9.062;2022-11-28T09:03:51;15.10;;;11.85;;
22113;SDS011;11223;49.968;9.062;2022-11-28T09:06:18;19.95;;;14.38;;
22113;SDS011;11223;49.968;9.062;2022-11-28T09:08:45;16.92;;;12.43;;
22113;SDS011;11223;49.968;9.062;2022-11-28T09:11:11;12.47;;;9.77;;
22113;SDS011;11223;49.968;9.062;2022-11-28T09:13:39;16.77;;;13.30;;
22113;SDS011;11223;49.968;9.062;2022-11-28T09:16:05;15.63;;;12.17;;
22113;SDS011;11223;49.968;9.062;2022-11-28T09:18:31;14.20;;;11.38;;
22113;SDS011;11223;49.968;9.062;2022-11-28T09:21:00;14.50;;;10.63;;
22113;SDS011;11223;49.968;9.062;2022-11-28T09:23:28;14.30;;;11.35;;
22113;SDS011;11223;49.968;9.062;2022-11-28T09:25:54;16.20;;;12.30;;
22113;SDS011;11223;49.968;9.062;2022-11-28T09:28:21;19.65;;;12.25;;
22113;SDS011;11223;49.968;9.062;2022-11-28T09:30:47;15.38;;;12.13;;
22113;SDS011;11223;49.968;9.062;2022-11-28T09:33:12;16.10;;;12.17;;
22113;SDS011;11223;49.968;9.062;2022-11-28T09:35:38;17.00;;;12.07;;
22113;SDS011;11223;49.968;9.062;2022-11-28T09:38:04;17.08;;;12.32;;
22113;SDS011;11223;49.968;9.062;2022-11-28T09:40:35;13.65;;;11.10;;
22113;SDS011;11223;49.968;9.062;2022-11-28T09:43:11;13.93;;;11.55;;
22113;SDS011;11223;49.968;9.062;2022-11-28T09:45:52;15.07;;;11.25;;
22113;SDS011;11223;49.968;9.062;2022-11-28T09:50:52;13.57;;;9.68;;
22113;SDS011;11223;49.968;9.062;2022-11-28T09:53:35;16.70;;;10.65;;
22113;SDS011;11223;49.968;9.062;2022-11-28T09:56:10;16.15;;;12.18;;
22113;SDS011;11223;49.968;9.062;2022-11-28T09:58:49;16.02;;;11.25;;
22113;SDS011;11223;49.968;9.062;2022-11-28T10:01:25;15.07;;;11.68;;
22113;SDS011;11223;49.968;9.062;2022-11-28T10:04:18;16.58;;;12.13;;
22113;SDS011;11223;49.968;9.062;2022-11-28T10:07:10;17.77;;;11.85;;
22113;SDS011;11223;49.968;9.062;2022-11-28T10:09:55;18.15;;;11.20;;
22113;SDS011;11223;49.968;9.062;2022-11-28T10:12:31;17.90;;;11.32;;
22113;SDS011;11223;49.968;9.062;2022-11-28T10:18:19;17.10;;;11.50;;
22113;SDS011;11223;49.968;9.062;2022-11-28T10:20:49;16.95;;;12.48;;
22113;SDS011;11223;49.968;9.062;2022-11-28T10:23:36;15.27;;;11.32;;
22113;SDS011;11223;49.968;9.062;2022-11-28T10:26:06;17.40;;;12.45;;
22113;SDS011;11223;49.968;9.062;2022-11-28T10:28:37;18.10;;;11.60;;
22113;SDS011;11223;49.968;9.062;2022-11-28T10:31:13;17.10;;;11.05;;
22113;SDS011;11223;49.968;9.062;2022-11-28T10:33:56;15.32;;;11.32;;
22113;SDS011;11223;49.968;9.062;2022-11-28T10:36:32;15.55;;;11.40;;
22113;SDS011;11223;49.968;9.062;2022-11-28T10:39:12;12.10;;;10.68;;
22113;SDS011;11223;49.968;9.062;2022-11-28T10:42:00;15.05;;;10.95;;
22113;SDS011;11223;49.968;9.062;2022-11-28T10:47:36;15.60;;;12.50;;
22113;SDS011;11223;49.968;9.062;2022-11-28T10:50:32;13.90;;;10.63;;
22113;SDS011;11223;49.968;9.062;2022-11-28T10:53:36;12.15;;;9.85;;
22113;SDS011;11223;49.968;9.062;2022-11-28T10:56:18;13.73;;;10.32;;
22113;SDS011;11223;49.968;9.062;2022-11-28T11:01:28;14.52;;;11.27;;
22113;SDS011;11223;49.968;9.062;2022-11-28T11:04:01;16.13;;;11.13;;
22113;SDS011;11223;49.968;9.062;2022-11-28T11:06:27;17.13;;;11.20;;
22113;SDS011;11223;49.968;9.062;2022-11-28T11:08:53;14.67;;;11.80;;
22113;SDS011;11223;49.968;9.062;2022-11-28T11:11:25;14.17;;;11.00;;
22113;SDS011;11223;49.968;9.062;2022-11-28T11:13:58;14.93;;;10.75;;
22113;SDS011;11223;49.968;9.062;2022-11-28T11:16:44;11.98;;;9.35;;
22113;SDS011;11223;49.968;9.062;2022-11-28T11:19:22;12.75;;;9.73;;
22113;SDS011;11223;49.968;9.062;2022-11-28T11:22:01;13.80;;;10.80;;
22113;SDS011;11223;49.968;9.062;2022-11-28T11:24:36;15.77;;;10.65;;
22113;SDS011;11223;49.968;9.062;2022-11-28T11:27:06;12.90;;;9.87;;
22113;SDS011;11223;49.968;9.062;2022-11-28T11:29:42;11.32;;;9.52;;
22113;SDS011;11223;49.968;9.062;2022-11-28T11:32:16;13.93;;;11.38;;
22113;SDS011;11223;49.968;9.062;2022-11-28T11:34:50;11.48;;;10.13;;
22113;SDS011;11223;49.968;9.062;2022-11-28T11:40:02;18.33;;;10.80;;
22113;SDS011;11223;49.968;9.062;2022-11-28T11:42:48;11.63;;;9.38;;
22113;SDS011;11223;49.968;9.062;2022-11-28T11:45:31;14.25;;;11.05;;
22113;SDS011;11223;49.968;9.062;2022-11-28T11:47:58;11.73;;;9.48;;
22113;SDS011;11223;49.968;9.062;2022-11-28T11:50:26;13.73;;;10.45;;
22113;SDS011;11223;49.968;9.062;2022-11-28T11:53:09;17.38;;;10.23;;
22113;SDS011;11223;49.968;9.062;2022-11-28T11:55:50;12.20;;;9.55;;
22113;SDS011;11223;49.968;9.062;2022-11-28T11:58:18;10.32;;;9.25;;
22113;SDS011;11223;49.968;9.062;2022-11-28T12:00:50;10.90;;;9.35;;
22113;SDS011;11223;49.968;9.062;2022-11-28T12:03:27;15.00;;;11.20;;
22113;SDS011;11223;49.968;9.062;2022-11-28T12:06:03;14.40;;;10.38;;
22113;SDS011;11223;49.968;9.062;2022-11-28T12:08:39;13.23;;;10.85;;
22113;SDS011;11223;49.968;9.062;2022-11-28T12:11:27;12.18;;;10.38;;
22113;SDS011;11223;49.968;9.062;2022-11-28T12:14:47;14.50;;;11.90;;
22113;SDS011;11223;49.968;9.062;2022-11-28T12:20:02;13.85;;;11.35;;
22113;SDS011;11223;49.968;9.062;2022-11-28T12:25:20;12.02;;;9.00;;
22113;SDS011;11223;49.968;9.062;2022-11-28T12:27:54;13.10;;;9.85;;
22113;SDS011;11223;49.968;9.062;2022-11-28T12:30:48;13.43;;;11.40;;
22113;SDS011;11223;49.968;9.062;2022-11-28T12:33:36;15.30;;;10.68;;
22113;SDS011;11223;49.968;9.062;2022-11-28T12:39:10;11.73;;;9.13;;
22113;SDS011;11223;49.968;9.062;2022-11-28T12:44:19;11.10;;;9.75;;
22113;SDS011;11223;49.968;9.062;2022-11-28T12:47:14;11.43;;;8.98;;
22113;SDS011;11223;49.968;9.062;2022-11-28T12:52:49;9.23;;;8.25;;
22113;SDS011;11223;49.968;9.062;2022-11-28T12:56:33;13.00;;;9.65;;
22113;SDS011;11223;49.968;9.062;2022-11-28T12:58:42;13.70;;;10.55;;
22113;SDS011;11223;49.968;9.062;2022-11-28T13:23:07;12.38;;;9.70;;
22113;SDS011;11223;49.968;9.062;2022-11-28T13:28:41;14.07;;;10.75;;
22113;SDS011;11223;49.968;9.062;2022-11-28T13:31:23;10.40;;;8.75;;
22113;SDS011;11223;49.968;9.062;2022-11-28T13:33:55;10.93;;;8.85;;
22113;SDS011;11223;49.968;9.062;2022-11-28T13:39:44;12.20;;;8.95;;
22113;SDS011;11223;49.968;9.062;2022-11-28T13:45:00;15.45;;;8.90;;
22113;SDS011;11223;49.968;9.062;2022-11-28T13:47:28;12.50;;;10.20;;
22113;SDS011;11223;49.968;9.062;2022-11-28T13:55:43;13.20;;;9.25;;
22113;SDS011;11223;49.968;9.062;2022-11-28T14:00:42;13.85;;;11.20;;
22113;SDS011;11223;49.968;9.062;2022-11-28T14:03:22;10.90;;;9.25;;
22113;SDS011;11223;49.968;9.062;2022-11-28T14:05:48;11.07;;;9.97;;
22113;SDS011;11223;49.968;9.062;2022-11-28T14:11:10;10.98;;;9.00;;
22113;SDS011;11223;49.968;9.062;2022-11-28T14:22:33;11.43;;;9.55;;
22113;SDS011;11223;49.968;9.062;2022-11-28T14:27:32;15.45;;;11.25;;
22113;SDS011;11223;49.968;9.062;2022-11-28T14:30:00;13.98;;;10.57;;
22113;SDS011;11223;49.968;9.062;2022-11-28T14:32:29;15.10;;;10.93;;
22113;SDS011;11223;49.968;9.062;2022-11-28T14:35:00;13.60;;;11.05;;
22113;SDS011;11223;49.968;9.062;2022-11-28T14:39:54;14.35;;;10.93;;
22113;SDS011;11223;49.968;9.062;2022-11-28T14:44:53;13.75;;;12.30;;
22113;SDS011;11223;49.968;9.062;2022-11-28T14:52:38;14.93;;;10.57;;
22113;SDS011;11223;49.968;9.062;2022-11-28T14:57:50;14.13;;;9.82;;
22113;SDS011;11223;49.968;9.062;2022-11-28T15:00:21;13.48;;;9.57;;
22113;SDS011;11223;49.968;9.062;2022-11-28T15:05:57;22.15;;;10.85;;
22113;SDS011;11223;49.968;9.062;2022-11-28T15:08:49;13.88;;;11.02;;
22113;SDS011;11223;49.968;9.062;2022-11-28T15:14:22;14.80;;;10.48;;
22113;SDS011;11223;49.968;9.062;2022-11-28T15:16:50;15.57;;;11.50;;
22113;SDS011;11223;49.968;9.062;2022-11-28T15:19:21;16.40;;;11.48;;
22113;SDS011;11223;49.968;9.062;2022-11-28T15:21:52;15.07;;;11.73;;
22113;SDS011;11223;49.968;9.062;2022-11-28T15:24:35;15.63;;;11.30;;
22113;SDS011;11223;49.968;9.062;2022-11-28T15:29:30;16.88;;;12.05;;
22113;SDS011;11223;49.968;9.062;2022-11-28T15:31:56;13.13;;;11.80;;
22113;SDS011;11223;49.968;9.062;2022-11-28T15:34:24;17.15;;;13.15;;
22113;SDS011;11223;49.968;9.062;2022-11-28T15:36:52;19.35;;;12.60;;
22113;SDS011;11223;49.968;9.062;2022-11-28T15:39:23;20.45;;;13.27;;
22113;SDS011;11223;49.968;9.062;2022-11-28T15:41:55;13.95;;;11.18;;
22113;SDS011;11223;49.968;9.062;2022-11-28T15:44:22;15.68;;;10.93;;
22113;SDS011;11223;49.968;9.062;2022-11-28T15:46:48;15.48;;;10.30;;
22113;SDS011;11223;49.968;9.062;2022-11-28T15:49:31;15.50;;;11.33;;
22113;SDS011;11223;49.968;9.062;2022-11-28T15:51:59;13.68;;;12.13;;
22113;SDS011;11223;49.968;9.062;2022-11-28T15:54:35;15.43;;;10.80;;
22113;SDS011;11223;49.968;9.062;2022-11-28T15:57:03;14.10;;;12.52;;
22113;SDS011;11223;49.968;9.062;2022-11-28T15:59:29;15.15;;;12.18;;
22113;SDS011;11223;49.968;9.062;2022-11-28T16:01:57;18.50;;;14.13;;
22113;SDS011;11223;49.968;9.062;2022-11-28T16:04:27;18.70;;;15.02;;
22113;SDS011;11223;49.968;9.062;2022-11-28T16:06:55;17.75;;;11.80;;
22113;SDS011;11223;49.968;9.062;2022-11-28T16:09:48;14.02;;;11.98;;
22113;SDS011;11223;49.968;9.062;2022-11-28T16:12:17;21.38;;;16.73;;
22113;SDS011;11223;49.968;9.062;2022-11-28T16:14:43;18.63;;;14.57;;
22113;SDS011;11223;49.968;9.062;2022-11-28T16:17:19;17.40;;;12.70;;
22113;SDS011;11223;49.968;9.062;2022-11-28T16:19:51;15.55;;;12.02;;
22113;SDS011;11223;49.968;9.062;2022-11-28T16:22:18;15.75;;;11.95;;
22113;SDS011;11223;49.968;9.062;2022-11-28T16:24:49;14.70;;;11.93;;
22113;SDS011;11223;49.968;9.062;2022-11-28T16:27:27;19.80;;;14.48;;
22113;SDS011;11223;49.968;9.062;2022-11-28T16:30:02;14.88;;;11.23;;
22113;SDS011;11223;49.968;9.062;2022-11-28T16:32:48;15.13;;;12.13;;
22113;SDS011;11223;49.968;9.062;2022-11-28T16:37:52;32.08;;;23.35;;
22113;SDS011;11223;49.968;9.062;2022-11-28T16:40:26;24.80;;;16.73;;
22113;SDS011;11223;49.968;9.062;2022-11-28T16:42:53;26.33;;;19.10;;
22113;SDS011;11223;49.968;9.062;2022-11-28T16:45:20;15.25;;;12.90;;
22113;SDS011;11223;49.968;9.062;2022-11-28T16:48:14;16.73;;;13.20;;
22113;SDS011;11223;49.968;9.062;2022-11-28T16:53:44;17.33;;;13.55;;
22113;SDS011;11223;49.968;9.062;2022-11-28T16:58:47;15.82;;;12.50;;
22113;SDS011;11223;49.968;9.062;2022-11-28T17:01:13;16.90;;;11.57;;
22113;SDS011;11223;49.968;9.062;2022-11-28T17:06:22;18.83;;;11.85;;
22113;SDS011;11223;49.968;9.062;2022-11-28T17:08:52;15.50;;;11.20;;
22113;SDS011;11223;49.968;9.062;2022-11-28T17:11:19;18.98;;;11.10;;
22113;SDS011;11223;49.968;9.062;2022-11-28T17:13:47;14.30;;;10.85;;
22113;SDS011;11223;49.968;9.062;2022-11-28T17:16:15;14.33;;;11.63;;
22113;SDS011;11223;49.968;9.062;2022-11-28T17:18:42;14.38;;;11.93;;
22113;SDS011;11223;49.968;9.062;2022-11-28T17:21:09;16.23;;;12.38;;
22113;SDS011;11223;49.968;9.062;2022-11-28T17:23:36;17.67;;;13.40;;
22113;SDS011;11223;49.968;9.062;2022-11-28T17:26:02;14.05;;;11.13;;
22113;SDS011;11223;49.968;9.062;2022-11-28T17:28:31;15.37;;;10.73;;
22113;SDS011;11223;49.968;9.062;2022-11-28T17:30:57;14.20;;;10.90;;
22113;SDS011;11223;49.968;9.062;2022-11-28T17:33:23;12.53;;;10.03;;
22113;SDS011;11223;49.968;9.062;2022-11-28T17:35:48;13.03;;;11.23;;
22113;SDS011;11223;49.968;9.062;2022-11-28T17:38:17;14.77;;;12.45;;